sensor_id;sensor_type;location;lat;lon;timestamp;P1;durP1;ratioP1;P2;durP2;ratioP2
64875;SDS011;51369;49.862;9.908;2023-07-02T00:02:20;4.28;;;3.88;;
64875;SDS011;51369;49.862;9.908;2023-07-02T00:04:46;5.25;;;4.65;;
64875;SDS011;51369;49.862;9.908;2023-07-02T00:07:13;5.72;;;3.63;;
64875;SDS011;51369;49.862;9.908;2023-07-02T00:09:39;4.95;;;4.45;;
64875;SDS011;51369;49.862;9.908;2023-07-02T00:12:05;5.40;;;3.83;;
64875;SDS011;51369;49.862;9.908;2023-07-02T00:14:31;5.50;;;4.05;;
64875;SDS011;51369;49.862;9.908;2023-07-02T00:16:56;5.18;;;4.07;;
64875;SDS011;51369;49.862;9.908;2023-07-02T00:19:21;3.90;;;3.50;;
64875;SDS011;51369;49.862;9.908;2023-07-02T00:21:47;9.38;;;3.95;;
64875;SDS011;51369;49.862;9.908;2023-07-02T00:24:13;4.57;;;3.85;;
64875;SDS011;51369;49.862;9.908;2023-07-02T00:26:38;5.03;;;4.00;;
64875;SDS011;51369;49.862;9.908;2023-07-02T00:29:05;4.47;;;4.03;;
64875;SDS011;51369;49.862;9.908;2023-07-02T00:31:31;4.63;;;3.85;;
64875;SDS011;51369;49.862;9.908;2023-07-02T00:33:58;8.02;;;3.70;;
64875;SDS011;51369;49.862;9.908;2023-07-02T00:36:23;3.83;;;3.53;;
64875;SDS011;51369;49.862;9.908;2023-07-02T00:38:49;6.22;;;4.45;;
64875;SDS011;51369;49.862;9.908;2023-07-02T00:41:14;4.70;;;3.75;;
64875;SDS011;51369;49.862;9.908;2023-07-02T00:43:40;6.15;;;3.63;;
64875;SDS011;51369;49.862;9.908;2023-07-02T00:46:13;5.45;;;4.13;;
64875;SDS011;51369;49.862;9.908;2023-07-02T00:48:46;8.00;;;3.95;;
64875;SDS011;51369;49.862;9.908;2023-07-02T00:51:15;6.35;;;4.43;;
64875;SDS011;51369;49.862;9.908;2023-07-02T00:53:51;4.70;;;4.20;;
64875;SDS011;51369;49.862;9.908;2023-07-02T00:56:19;6.18;;;4.32;;
64875;SDS011;51369;49.862;9.908;2023-07-02T00:58:46;6.93;;;3.92;;
64875;SDS011;51369;49.862;9.908;2023-07-02T01:01:16;6.57;;;4.50;;
64875;SDS011;51369;49.862;9.908;2023-07-02T01:04:17;4.25;;;3.85;;
64875;SDS011;51369;49.862;9.908;2023-07-02T01:06:37;6.03;;;3.88;;
64875;SDS011;51369;49.862;9.908;2023-07-02T01:09:06;6.43;;;3.97;;
64875;SDS011;51369;49.862;9.908;2023-07-02T01:16:45;6.40;;;4.00;;
64875;SDS011;51369;49.862;9.908;2023-07-02T01:19:18;4.43;;;4.03;;
64875;SDS011;51369;49.862;9.908;2023-07-02T01:21:47;4.13;;;3.78;;
64875;SDS011;51369;49.862;9.908;2023-07-02T01:24:14;4.28;;;3.88;;
64875;SDS011;51369;49.862;9.908;2023-07-02T01:26:41;4.85;;;4.32;;
64875;SDS011;51369;49.862;9.908;2023-07-02T01:29:16;7.13;;;4.43;;
64875;SDS011;51369;49.862;9.908;2023-07-02T01:31:43;5.10;;;4.43;;
64875;SDS011;51369;49.862;9.908;2023-07-02T01:34:09;5.93;;;4.30;;
64875;SDS011;51369;49.862;9.908;2023-07-02T01:36:35;5.68;;;4.15;;
64875;SDS011;51369;49.862;9.908;2023-07-02T01:39:01;7.85;;;3.67;;
64875;SDS011;51369;49.862;9.908;2023-07-02T01:41:26;4.82;;;3.83;;
64875;SDS011;51369;49.862;9.908;2023-07-02T01:43:51;3.78;;;3.47;;
64875;SDS011;51369;49.862;9.908;2023-07-02T01:46:17;5.47;;;3.47;;
64875;SDS011;51369;49.862;9.908;2023-07-02T01:48:44;5.88;;;3.47;;
64875;SDS011;51369;49.862;9.908;2023-07-02T01:51:09;5.88;;;3.50;;
64875;SDS011;51369;49.862;9.908;2023-07-02T01:53:35;4.40;;;3.65;;
64875;SDS011;51369;49.862;9.908;2023-07-02T01:56:01;4.03;;;3.35;;
64875;SDS011;51369;49.862;9.908;2023-07-02T01:58:26;5.00;;;3.08;;
64875;SDS011;51369;49.862;9.908;2023-07-02T02:00:52;5.95;;;3.45;;
64875;SDS011;51369;49.862;9.908;2023-07-02T02:03:17;9.93;;;4.05;;
64875;SDS011;51369;49.862;9.908;2023-07-02T02:05:42;5.57;;;3.47;;
64875;SDS011;51369;49.862;9.908;2023-07-02T02:08:08;4.13;;;3.05;;
64875;SDS011;51369;49.862;9.908;2023-07-02T02:10:33;3.72;;;3.10;;
64875;SDS011;51369;49.862;9.908;2023-07-02T02:12:58;7.10;;;3.10;;
64875;SDS011;51369;49.862;9.908;2023-07-02T02:15:24;5.63;;;3.50;;
64875;SDS011;51369;49.862;9.908;2023-07-02T02:17:49;3.70;;;3.10;;
64875;SDS011;51369;49.862;9.908;2023-07-02T02:20:16;3.63;;;2.95;;
64875;SDS011;51369;49.862;9.908;2023-07-02T02:22:42;4.60;;;3.08;;
64875;SDS011;51369;49.862;9.908;2023-07-02T02:25:07;3.67;;;3.05;;
64875;SDS011;51369;49.862;9.908;2023-07-02T02:27:33;4.15;;;2.80;;
64875;SDS011;51369;49.862;9.908;2023-07-02T02:29:58;4.25;;;2.97;;
64875;SDS011;51369;49.862;9.908;2023-07-02T02:32:25;4.57;;;2.65;;
64875;SDS011;51369;49.862;9.908;2023-07-02T02:34:50;5.38;;;2.80;;
64875;SDS011;51369;49.862;9.908;2023-07-02T02:37:16;4.47;;;2.75;;
64875;SDS011;51369;49.862;9.908;2023-07-02T02:39:42;5.00;;;2.90;;
64875;SDS011;51369;49.862;9.908;2023-07-02T02:42:07;9.40;;;3.10;;
64875;SDS011;51369;49.862;9.908;2023-07-02T02:44:33;5.10;;;2.92;;
64875;SDS011;51369;49.862;9.908;2023-07-02T02:46:59;5.22;;;3.03;;
64875;SDS011;51369;49.862;9.908;2023-07-02T02:49:25;5.32;;;2.88;;
64875;SDS011;51369;49.862;9.908;2023-07-02T02:51:50;5.05;;;2.95;;
64875;SDS011;51369;49.862;9.908;2023-07-02T02:54:16;7.47;;;2.80;;
64875;SDS011;51369;49.862;9.908;2023-07-02T02:56:42;4.78;;;2.70;;
64875;SDS011;51369;49.862;9.908;2023-07-02T02:59:07;6.13;;;3.00;;
64875;SDS011;51369;49.862;9.908;2023-07-02T03:01:32;6.90;;;3.38;;
64875;SDS011;51369;49.862;9.908;2023-07-02T03:03:58;4.88;;;2.80;;
64875;SDS011;51369;49.862;9.908;2023-07-02T03:06:24;5.13;;;3.10;;
64875;SDS011;51369;49.862;9.908;2023-07-02T03:08:49;4.85;;;2.90;;
64875;SDS011;51369;49.862;9.908;2023-07-02T03:11:15;5.18;;;2.65;;
64875;SDS011;51369;49.862;9.908;2023-07-02T03:13:41;2.70;;;2.50;;
64875;SDS011;51369;49.862;9.908;2023-07-02T03:16:06;5.65;;;2.65;;
64875;SDS011;51369;49.862;9.908;2023-07-02T03:18:32;5.15;;;2.88;;
64875;SDS011;51369;49.862;9.908;2023-07-02T03:20:58;3.85;;;2.65;;
64875;SDS011;51369;49.862;9.908;2023-07-02T03:23:24;4.97;;;3.05;;
64875;SDS011;51369;49.862;9.908;2023-07-02T03:25:49;5.43;;;3.15;;
64875;SDS011;51369;49.862;9.908;2023-07-02T03:28:14;11.70;;;4.03;;
64875;SDS011;51369;49.862;9.908;2023-07-02T03:30:41;4.22;;;2.78;;
64875;SDS011;51369;49.862;9.908;2023-07-02T03:33:08;6.97;;;2.47;;
64875;SDS011;51369;49.862;9.908;2023-07-02T03:35:34;8.65;;;2.92;;
64875;SDS011;51369;49.862;9.908;2023-07-02T03:37:59;5.55;;;2.85;;
64875;SDS011;51369;49.862;9.908;2023-07-02T03:40:24;3.72;;;2.67;;
64875;SDS011;51369;49.862;9.908;2023-07-02T03:42:50;4.90;;;2.55;;
64875;SDS011;51369;49.862;9.908;2023-07-02T03:45:15;6.72;;;3.35;;
64875;SDS011;51369;49.862;9.908;2023-07-02T03:47:40;7.03;;;2.50;;
64875;SDS011;51369;49.862;9.908;2023-07-02T03:50:06;4.20;;;2.63;;
64875;SDS011;51369;49.862;9.908;2023-07-02T03:52:32;5.90;;;3.00;;
64875;SDS011;51369;49.862;9.908;2023-07-02T03:54:57;7.82;;;2.85;;
64875;SDS011;51369;49.862;9.908;2023-07-02T03:57:24;5.65;;;2.30;;
64875;SDS011;51369;49.862;9.908;2023-07-02T03:59:51;4.80;;;2.60;;
64875;SDS011;51369;49.862;9.908;2023-07-02T04:02:16;6.10;;;2.70;;
64875;SDS011;51369;49.862;9.908;2023-07-02T04:04:42;4.57;;;2.63;;
64875;SDS011;51369;49.862;9.908;2023-07-02T04:07:07;4.28;;;2.35;;
64875;SDS011;51369;49.862;9.908;2023-07-02T04:09:32;5.85;;;2.92;;
64875;SDS011;51369;49.862;9.908;2023-07-02T04:11:58;6.90;;;2.90;;
64875;SDS011;51369;49.862;9.908;2023-07-02T04:14:24;5.60;;;3.00;;
64875;SDS011;51369;49.862;9.908;2023-07-02T04:16:50;8.98;;;3.38;;
64875;SDS011;51369;49.862;9.908;2023-07-02T04:19:15;10.50;;;3.65;;
64875;SDS011;51369;49.862;9.908;2023-07-02T04:21:41;8.20;;;4.22;;
64875;SDS011;51369;49.862;9.908;2023-07-02T04:24:06;6.75;;;4.65;;
64875;SDS011;51369;49.862;9.908;2023-07-02T04:26:31;10.18;;;4.70;;
64875;SDS011;51369;49.862;9.908;2023-07-02T04:28:57;7.30;;;4.32;;
64875;SDS011;51369;49.862;9.908;2023-07-02T04:31:24;7.10;;;4.63;;
64875;SDS011;51369;49.862;9.908;2023-07-02T04:33:49;8.13;;;4.45;;
64875;SDS011;51369;49.862;9.908;2023-07-02T04:36:14;9.90;;;4.53;;
64875;SDS011;51369;49.862;9.908;2023-07-02T04:38:40;8.18;;;4.05;;
64875;SDS011;51369;49.862;9.908;2023-07-02T04:41:06;9.27;;;4.35;;
64875;SDS011;51369;49.862;9.908;2023-07-02T04:43:31;8.57;;;4.32;;
64875;SDS011;51369;49.862;9.908;2023-07-02T04:45:58;8.15;;;4.93;;
64875;SDS011;51369;49.862;9.908;2023-07-02T04:48:23;10.32;;;5.32;;
64875;SDS011;51369;49.862;9.908;2023-07-02T04:50:49;11.43;;;5.50;;
64875;SDS011;51369;49.862;9.908;2023-07-02T04:53:15;10.30;;;4.85;;
64875;SDS011;51369;49.862;9.908;2023-07-02T04:55:40;12.70;;;5.40;;
64875;SDS011;51369;49.862;9.908;2023-07-02T04:58:06;12.55;;;5.95;;
64875;SDS011;51369;49.862;9.908;2023-07-02T05:00:31;8.48;;;5.13;;
64875;SDS011;51369;49.862;9.908;2023-07-02T05:02:57;12.48;;;5.25;;
64875;SDS011;51369;49.862;9.908;2023-07-02T05:05:22;9.98;;;5.10;;
64875;SDS011;51369;49.862;9.908;2023-07-02T05:07:47;12.57;;;5.28;;
64875;SDS011;51369;49.862;9.908;2023-07-02T05:10:13;11.23;;;5.00;;
64875;SDS011;51369;49.862;9.908;2023-07-02T05:12:39;11.85;;;5.43;;
64875;SDS011;51369;49.862;9.908;2023-07-02T05:15:05;9.43;;;5.13;;
64875;SDS011;51369;49.862;9.908;2023-07-02T05:17:31;14.15;;;5.10;;
64875;SDS011;51369;49.862;9.908;2023-07-02T05:19:59;10.00;;;5.38;;
64875;SDS011;51369;49.862;9.908;2023-07-02T05:22:25;10.02;;;5.53;;
64875;SDS011;51369;49.862;9.908;2023-07-02T05:24:51;12.35;;;5.18;;
64875;SDS011;51369;49.862;9.908;2023-07-02T05:27:17;10.40;;;6.07;;
64875;SDS011;51369;49.862;9.908;2023-07-02T05:29:43;11.52;;;5.80;;
64875;SDS011;51369;49.862;9.908;2023-07-02T05:32:08;12.07;;;5.80;;
64875;SDS011;51369;49.862;9.908;2023-07-02T05:34:34;8.52;;;5.50;;
64875;SDS011;51369;49.862;9.908;2023-07-02T05:36:59;13.45;;;5.60;;
64875;SDS011;51369;49.862;9.908;2023-07-02T05:39:25;11.05;;;6.38;;
64875;SDS011;51369;49.862;9.908;2023-07-02T05:41:50;12.63;;;6.32;;
64875;SDS011;51369;49.862;9.908;2023-07-02T05:44:16;11.77;;;6.32;;
64875;SDS011;51369;49.862;9.908;2023-07-02T05:46:41;16.77;;;7.50;;
64875;SDS011;51369;49.862;9.908;2023-07-02T05:49:07;13.70;;;6.55;;
64875;SDS011;51369;49.862;9.908;2023-07-02T05:51:32;15.55;;;7.28;;
64875;SDS011;51369;49.862;9.908;2023-07-02T05:53:58;18.30;;;7.95;;
64875;SDS011;51369;49.862;9.908;2023-07-02T05:56:23;13.68;;;6.75;;
64875;SDS011;51369;49.862;9.908;2023-07-02T05:58:49;13.13;;;7.40;;
64875;SDS011;51369;49.862;9.908;2023-07-02T06:01:17;15.55;;;7.50;;
64875;SDS011;51369;49.862;9.908;2023-07-02T06:03:43;16.23;;;7.68;;
64875;SDS011;51369;49.862;9.908;2023-07-02T06:06:10;13.55;;;7.28;;
64875;SDS011;51369;49.862;9.908;2023-07-02T06:08:36;14.93;;;6.97;;
64875;SDS011;51369;49.862;9.908;2023-07-02T06:11:02;17.60;;;7.80;;
64875;SDS011;51369;49.862;9.908;2023-07-02T06:13:27;19.85;;;7.90;;
64875;SDS011;51369;49.862;9.908;2023-07-02T06:15:52;14.75;;;7.53;;
64875;SDS011;51369;49.862;9.908;2023-07-02T06:18:18;16.90;;;7.53;;
64875;SDS011;51369;49.862;9.908;2023-07-02T06:20:43;13.45;;;7.45;;
64875;SDS011;51369;49.862;9.908;2023-07-02T06:23:09;13.98;;;7.72;;
64875;SDS011;51369;49.862;9.908;2023-07-02T06:25:34;12.98;;;7.50;;
64875;SDS011;51369;49.862;9.908;2023-07-02T06:28:00;15.82;;;8.20;;
64875;SDS011;51369;49.862;9.908;2023-07-02T06:30:26;17.38;;;7.55;;
64875;SDS011;51369;49.862;9.908;2023-07-02T06:32:51;14.90;;;7.43;;
64875;SDS011;51369;49.862;9.908;2023-07-02T06:35:18;14.90;;;7.60;;
64875;SDS011;51369;49.862;9.908;2023-07-02T06:37:44;16.73;;;8.02;;
64875;SDS011;51369;49.862;9.908;2023-07-02T06:40:09;12.05;;;8.18;;
64875;SDS011;51369;49.862;9.908;2023-07-02T06:42:35;18.90;;;8.70;;
64875;SDS011;51369;49.862;9.908;2023-07-02T06:45:01;21.42;;;8.35;;
64875;SDS011;51369;49.862;9.908;2023-07-02T06:47:27;20.20;;;8.30;;
64875;SDS011;51369;49.862;9.908;2023-07-02T06:49:52;16.63;;;7.88;;
64875;SDS011;51369;49.862;9.908;2023-07-02T06:52:18;19.52;;;9.70;;
64875;SDS011;51369;49.862;9.908;2023-07-02T06:54:43;15.93;;;8.93;;
64875;SDS011;51369;49.862;9.908;2023-07-02T06:57:09;14.05;;;8.23;;
64875;SDS011;51369;49.862;9.908;2023-07-02T06:59:34;17.15;;;8.45;;
64875;SDS011;51369;49.862;9.908;2023-07-02T07:01:59;18.48;;;8.85;;
64875;SDS011;51369;49.862;9.908;2023-07-02T07:04:25;19.55;;;7.95;;
64875;SDS011;51369;49.862;9.908;2023-07-02T07:06:50;13.70;;;8.05;;
64875;SDS011;51369;49.862;9.908;2023-07-02T07:09:16;15.73;;;7.93;;
64875;SDS011;51369;49.862;9.908;2023-07-02T07:11:43;15.70;;;8.20;;
64875;SDS011;51369;49.862;9.908;2023-07-02T07:14:08;17.33;;;9.25;;
64875;SDS011;51369;49.862;9.908;2023-07-02T07:16:33;15.18;;;7.88;;
64875;SDS011;51369;49.862;9.908;2023-07-02T07:18:59;17.05;;;8.20;;
64875;SDS011;51369;49.862;9.908;2023-07-02T07:21:24;15.90;;;8.63;;
64875;SDS011;51369;49.862;9.908;2023-07-02T07:23:50;13.80;;;8.18;;
64875;SDS011;51369;49.862;9.908;2023-07-02T07:26:16;15.23;;;8.65;;
64875;SDS011;51369;49.862;9.908;2023-07-02T07:28:41;14.52;;;7.88;;
64875;SDS011;51369;49.862;9.908;2023-07-02T07:31:07;18.17;;;8.77;;
64875;SDS011;51369;49.862;9.908;2023-07-02T07:33:32;15.20;;;7.88;;
64875;SDS011;51369;49.862;9.908;2023-07-02T07:35:58;15.57;;;7.82;;
64875;SDS011;51369;49.862;9.908;2023-07-02T07:38:23;16.05;;;8.98;;
64875;SDS011;51369;49.862;9.908;2023-07-02T07:40:48;14.73;;;7.80;;
64875;SDS011;51369;49.862;9.908;2023-07-02T07:43:14;16.98;;;8.00;;
64875;SDS011;51369;49.862;9.908;2023-07-02T07:45:39;16.88;;;8.63;;
64875;SDS011;51369;49.862;9.908;2023-07-02T07:48:05;15.55;;;9.55;;
64875;SDS011;51369;49.862;9.908;2023-07-02T07:50:30;15.60;;;8.75;;
64875;SDS011;51369;49.862;9.908;2023-07-02T07:52:56;22.25;;;9.65;;
64875;SDS011;51369;49.862;9.908;2023-07-02T07:55:21;14.45;;;9.00;;
64875;SDS011;51369;49.862;9.908;2023-07-02T07:57:47;16.33;;;8.95;;
64875;SDS011;51369;49.862;9.908;2023-07-02T08:00:12;20.08;;;8.70;;
64875;SDS011;51369;49.862;9.908;2023-07-02T08:02:47;18.38;;;9.63;;
64875;SDS011;51369;49.862;9.908;2023-07-02T08:05:13;20.05;;;10.45;;
64875;SDS011;51369;49.862;9.908;2023-07-02T08:07:38;16.27;;;9.63;;
64875;SDS011;51369;49.862;9.908;2023-07-02T08:10:05;19.70;;;9.52;;
64875;SDS011;51369;49.862;9.908;2023-07-02T08:12:30;14.65;;;8.63;;
64875;SDS011;51369;49.862;9.908;2023-07-02T08:14:56;16.67;;;9.35;;
64875;SDS011;51369;49.862;9.908;2023-07-02T08:17:22;13.88;;;9.10;;
64875;SDS011;51369;49.862;9.908;2023-07-02T08:19:47;19.02;;;9.57;;
64875;SDS011;51369;49.862;9.908;2023-07-02T08:22:13;18.52;;;9.48;;
64875;SDS011;51369;49.862;9.908;2023-07-02T08:24:38;18.52;;;9.85;;
64875;SDS011;51369;49.862;9.908;2023-07-02T08:27:04;16.48;;;9.40;;
64875;SDS011;51369;49.862;9.908;2023-07-02T08:29:30;19.33;;;9.73;;
64875;SDS011;51369;49.862;9.908;2023-07-02T08:31:56;15.05;;;10.07;;
64875;SDS011;51369;49.862;9.908;2023-07-02T08:34:21;25.83;;;10.32;;
64875;SDS011;51369;49.862;9.908;2023-07-02T08:36:47;19.15;;;9.90;;
64875;SDS011;51369;49.862;9.908;2023-07-02T08:39:12;17.63;;;9.48;;
64875;SDS011;51369;49.862;9.908;2023-07-02T08:41:44;15.63;;;9.52;;
64875;SDS011;51369;49.862;9.908;2023-07-02T08:44:10;16.83;;;9.77;;
64875;SDS011;51369;49.862;9.908;2023-07-02T08:46:37;21.25;;;10.43;;
64875;SDS011;51369;49.862;9.908;2023-07-02T08:49:03;18.13;;;9.98;;
64875;SDS011;51369;49.862;9.908;2023-07-02T08:51:28;21.63;;;10.00;;
64875;SDS011;51369;49.862;9.908;2023-07-02T08:53:54;17.75;;;10.35;;
64875;SDS011;51369;49.862;9.908;2023-07-02T08:56:19;15.60;;;9.52;;
64875;SDS011;51369;49.862;9.908;2023-07-02T08:58:45;19.55;;;9.95;;
64875;SDS011;51369;49.862;9.908;2023-07-02T09:01:11;22.15;;;10.85;;
64875;SDS011;51369;49.862;9.908;2023-07-02T09:03:38;19.77;;;9.65;;
64875;SDS011;51369;49.862;9.908;2023-07-02T09:06:08;17.88;;;10.38;;
64875;SDS011;51369;49.862;9.908;2023-07-02T09:08:35;16.17;;;9.65;;
64875;SDS011;51369;49.862;9.908;2023-07-02T09:11:10;18.63;;;10.50;;
64875;SDS011;51369;49.862;9.908;2023-07-02T09:13:50;15.70;;;9.45;;
64875;SDS011;51369;49.862;9.908;2023-07-02T09:16:21;20.13;;;9.43;;
64875;SDS011;51369;49.862;9.908;2023-07-02T09:19:06;17.25;;;9.77;;
64875;SDS011;51369;49.862;9.908;2023-07-02T09:21:38;17.65;;;10.00;;
64875;SDS011;51369;49.862;9.908;2023-07-02T09:26:41;17.33;;;9.70;;
64875;SDS011;51369;49.862;9.908;2023-07-02T09:29:08;18.25;;;8.52;;
64875;SDS011;51369;49.862;9.908;2023-07-02T09:31:42;14.23;;;8.02;;
64875;SDS011;51369;49.862;9.908;2023-07-02T09:34:08;14.25;;;8.40;;
64875;SDS011;51369;49.862;9.908;2023-07-02T09:36:34;18.15;;;8.25;;
64875;SDS011;51369;49.862;9.908;2023-07-02T09:39:02;14.43;;;8.00;;
64875;SDS011;51369;49.862;9.908;2023-07-02T09:41:30;16.23;;;8.82;;
64875;SDS011;51369;49.862;9.908;2023-07-02T09:43:55;14.18;;;7.97;;
64875;SDS011;51369;49.862;9.908;2023-07-02T09:46:21;13.50;;;7.88;;
64875;SDS011;51369;49.862;9.908;2023-07-02T09:48:47;11.93;;;7.57;;
64875;SDS011;51369;49.862;9.908;2023-07-02T09:51:13;12.27;;;7.85;;
64875;SDS011;51369;49.862;9.908;2023-07-02T09:53:39;15.75;;;8.35;;
64875;SDS011;51369;49.862;9.908;2023-07-02T09:56:04;13.10;;;8.75;;
64875;SDS011;51369;49.862;9.908;2023-07-02T09:58:32;17.17;;;8.35;;
64875;SDS011;51369;49.862;9.908;2023-07-02T10:00:58;11.77;;;7.63;;
64875;SDS011;51369;49.862;9.908;2023-07-02T10:03:30;15.38;;;8.27;;
64875;SDS011;51369;49.862;9.908;2023-07-02T10:06:02;14.73;;;9.05;;
64875;SDS011;51369;49.862;9.908;2023-07-02T10:08:31;12.38;;;8.05;;
64875;SDS011;51369;49.862;9.908;2023-07-02T10:11:12;15.13;;;8.70;;
64875;SDS011;51369;49.862;9.908;2023-07-02T10:13:38;14.23;;;8.77;;
64875;SDS011;51369;49.862;9.908;2023-07-02T10:16:04;14.43;;;8.57;;
64875;SDS011;51369;49.862;9.908;2023-07-02T10:18:30;15.20;;;8.05;;
64875;SDS011;51369;49.862;9.908;2023-07-02T10:20:56;16.35;;;8.57;;
64875;SDS011;51369;49.862;9.908;2023-07-02T10:23:32;14.20;;;7.97;;
64875;SDS011;51369;49.862;9.908;2023-07-02T10:26:09;18.40;;;7.85;;
64875;SDS011;51369;49.862;9.908;2023-07-02T10:28:59;15.32;;;8.82;;
64875;SDS011;51369;49.862;9.908;2023-07-02T10:31:25;13.85;;;8.40;;
64875;SDS011;51369;49.862;9.908;2023-07-02T10:33:50;13.85;;;8.35;;
64875;SDS011;51369;49.862;9.908;2023-07-02T10:36:17;11.02;;;7.63;;
64875;SDS011;51369;49.862;9.908;2023-07-02T10:38:44;12.10;;;8.23;;
64875;SDS011;51369;49.862;9.908;2023-07-02T10:41:10;12.45;;;8.05;;
64875;SDS011;51369;49.862;9.908;2023-07-02T10:43:35;14.07;;;8.27;;
64875;SDS011;51369;49.862;9.908;2023-07-02T10:46:00;13.60;;;7.50;;
64875;SDS011;51369;49.862;9.908;2023-07-02T10:48:26;11.05;;;7.45;;
64875;SDS011;51369;49.862;9.908;2023-07-02T10:50:51;10.90;;;6.63;;
64875;SDS011;51369;49.862;9.908;2023-07-02T10:53:17;15.30;;;7.18;;
64875;SDS011;51369;49.862;9.908;2023-07-02T10:55:44;10.45;;;6.15;;
64875;SDS011;51369;49.862;9.908;2023-07-02T10:58:10;10.27;;;6.38;;
64875;SDS011;51369;49.862;9.908;2023-07-02T11:00:43;11.07;;;6.75;;
64875;SDS011;51369;49.862;9.908;2023-07-02T11:03:20;8.68;;;6.63;;
64875;SDS011;51369;49.862;9.908;2023-07-02T11:05:47;12.20;;;6.78;;
64875;SDS011;51369;49.862;9.908;2023-07-02T11:08:13;9.98;;;6.60;;
64875;SDS011;51369;49.862;9.908;2023-07-02T11:10:39;10.20;;;6.60;;
64875;SDS011;51369;49.862;9.908;2023-07-02T11:13:11;9.90;;;7.05;;
64875;SDS011;51369;49.862;9.908;2023-07-02T11:15:40;12.68;;;7.75;;
64875;SDS011;51369;49.862;9.908;2023-07-02T11:18:14;12.48;;;8.38;;
64875;SDS011;51369;49.862;9.908;2023-07-02T11:20:42;13.25;;;7.85;;
64875;SDS011;51369;49.862;9.908;2023-07-02T11:23:18;11.48;;;8.10;;
64875;SDS011;51369;49.862;9.908;2023-07-02T11:25:53;16.40;;;8.45;;
64875;SDS011;51369;49.862;9.908;2023-07-02T11:28:23;14.07;;;8.48;;
64875;SDS011;51369;49.862;9.908;2023-07-02T11:30:48;14.20;;;9.13;;
64875;SDS011;51369;49.862;9.908;2023-07-02T11:33:14;12.38;;;7.93;;
64875;SDS011;51369;49.862;9.908;2023-07-02T11:35:39;15.05;;;8.02;;
64875;SDS011;51369;49.862;9.908;2023-07-02T11:38:05;14.68;;;9.10;;
64875;SDS011;51369;49.862;9.908;2023-07-02T11:40:31;12.30;;;8.52;;
64875;SDS011;51369;49.862;9.908;2023-07-02T11:42:57;13.20;;;8.73;;
64875;SDS011;51369;49.862;9.908;2023-07-02T11:45:22;13.73;;;9.25;;
64875;SDS011;51369;49.862;9.908;2023-07-02T11:47:47;13.90;;;8.95;;
64875;SDS011;51369;49.862;9.908;2023-07-02T11:50:13;15.43;;;9.07;;
64875;SDS011;51369;49.862;9.908;2023-07-02T11:52:38;17.15;;;10.35;;
64875;SDS011;51369;49.862;9.908;2023-07-02T11:55:03;16.38;;;9.38;;
64875;SDS011;51369;49.862;9.908;2023-07-02T11:57:29;13.98;;;9.52;;
64875;SDS011;51369;49.862;9.908;2023-07-02T11:59:55;14.10;;;9.85;;
64875;SDS011;51369;49.862;9.908;2023-07-02T12:02:21;17.10;;;10.30;;
64875;SDS011;51369;49.862;9.908;2023-07-02T12:04:46;13.77;;;10.15;;
64875;SDS011;51369;49.862;9.908;2023-07-02T12:07:12;14.63;;;10.07;;
64875;SDS011;51369;49.862;9.908;2023-07-02T12:09:38;16.17;;;9.93;;
64875;SDS011;51369;49.862;9.908;2023-07-02T12:12:04;15.10;;;9.38;;
64875;SDS011;51369;49.862;9.908;2023-07-02T12:14:30;20.10;;;10.38;;
64875;SDS011;51369;49.862;9.908;2023-07-02T12:16:55;19.85;;;10.93;;
64875;SDS011;51369;49.862;9.908;2023-07-02T12:19:20;12.73;;;8.75;;
64875;SDS011;51369;49.862;9.908;2023-07-02T12:21:46;17.98;;;10.88;;
64875;SDS011;51369;49.862;9.908;2023-07-02T12:24:11;15.02;;;10.20;;
64875;SDS011;51369;49.862;9.908;2023-07-02T12:26:36;15.80;;;10.32;;
64875;SDS011;51369;49.862;9.908;2023-07-02T12:29:02;12.57;;;9.45;;
64875;SDS011;51369;49.862;9.908;2023-07-02T12:31:30;15.35;;;9.95;;
64875;SDS011;51369;49.862;9.908;2023-07-02T12:33:55;13.90;;;9.82;;
64875;SDS011;51369;49.862;9.908;2023-07-02T12:36:21;13.35;;;10.32;;
64875;SDS011;51369;49.862;9.908;2023-07-02T12:38:46;17.23;;;9.73;;
64875;SDS011;51369;49.862;9.908;2023-07-02T12:41:11;19.50;;;12.77;;
64875;SDS011;51369;49.862;9.908;2023-07-02T12:43:37;15.10;;;10.43;;
64875;SDS011;51369;49.862;9.908;2023-07-02T12:46:02;16.05;;;10.20;;
64875;SDS011;51369;49.862;9.908;2023-07-02T12:48:27;17.90;;;9.73;;
64875;SDS011;51369;49.862;9.908;2023-07-02T12:50:53;13.70;;;9.93;;
64875;SDS011;51369;49.862;9.908;2023-07-02T12:53:23;13.93;;;9.40;;
64875;SDS011;51369;49.862;9.908;2023-07-02T12:55:53;14.10;;;10.07;;
64875;SDS011;51369;49.862;9.908;2023-07-02T12:58:19;20.27;;;11.63;;
64875;SDS011;51369;49.862;9.908;2023-07-02T13:00:45;16.50;;;9.50;;
64875;SDS011;51369;49.862;9.908;2023-07-02T13:03:12;18.13;;;10.45;;
64875;SDS011;51369;49.862;9.908;2023-07-02T13:05:38;15.02;;;10.48;;
64875;SDS011;51369;49.862;9.908;2023-07-02T13:08:05;16.63;;;10.63;;
64875;SDS011;51369;49.862;9.908;2023-07-02T13:10:32;14.68;;;10.30;;
64875;SDS011;51369;49.862;9.908;2023-07-02T13:12:58;15.63;;;10.07;;
64875;SDS011;51369;49.862;9.908;2023-07-02T13:15:24;18.42;;;11.23;;
64875;SDS011;51369;49.862;9.908;2023-07-02T13:17:49;18.20;;;11.32;;
64875;SDS011;51369;49.862;9.908;2023-07-02T13:20:14;20.63;;;11.65;;
64875;SDS011;51369;49.862;9.908;2023-07-02T13:22:40;19.10;;;12.00;;
64875;SDS011;51369;49.862;9.908;2023-07-02T13:25:05;15.95;;;10.38;;
64875;SDS011;51369;49.862;9.908;2023-07-02T13:27:31;16.80;;;11.05;;
64875;SDS011;51369;49.862;9.908;2023-07-02T13:29:57;17.92;;;11.85;;
64875;SDS011;51369;49.862;9.908;2023-07-02T13:32:23;19.17;;;11.95;;
64875;SDS011;51369;49.862;9.908;2023-07-02T13:34:48;17.95;;;11.15;;
64875;SDS011;51369;49.862;9.908;2023-07-02T13:37:13;21.63;;;12.23;;
64875;SDS011;51369;49.862;9.908;2023-07-02T13:39:43;21.55;;;11.40;;
64875;SDS011;51369;49.862;9.908;2023-07-02T13:42:08;19.80;;;11.40;;
64875;SDS011;51369;49.862;9.908;2023-07-02T13:44:34;19.20;;;11.88;;
64875;SDS011;51369;49.862;9.908;2023-07-02T13:46:59;21.23;;;12.75;;
64875;SDS011;51369;49.862;9.908;2023-07-02T13:49:24;20.55;;;12.65;;
64875;SDS011;51369;49.862;9.908;2023-07-02T13:51:50;17.38;;;11.88;;
64875;SDS011;51369;49.862;9.908;2023-07-02T13:54:15;18.30;;;12.77;;
64875;SDS011;51369;49.862;9.908;2023-07-02T13:56:41;20.75;;;12.90;;
64875;SDS011;51369;49.862;9.908;2023-07-02T13:59:06;21.33;;;12.77;;
64875;SDS011;51369;49.862;9.908;2023-07-02T14:01:32;25.80;;;13.32;;
64875;SDS011;51369;49.862;9.908;2023-07-02T14:03:59;18.65;;;13.48;;
64875;SDS011;51369;49.862;9.908;2023-07-02T14:06:25;23.98;;;14.10;;
64875;SDS011;51369;49.862;9.908;2023-07-02T14:08:50;18.75;;;13.07;;
64875;SDS011;51369;49.862;9.908;2023-07-02T14:11:16;19.58;;;13.27;;
64875;SDS011;51369;49.862;9.908;2023-07-02T14:13:42;23.08;;;13.77;;
64875;SDS011;51369;49.862;9.908;2023-07-02T14:16:07;22.40;;;14.07;;
64875;SDS011;51369;49.862;9.908;2023-07-02T14:18:33;22.70;;;14.10;;
64875;SDS011;51369;49.862;9.908;2023-07-02T14:20:58;23.60;;;13.85;;
64875;SDS011;51369;49.862;9.908;2023-07-02T14:23:23;21.48;;;14.13;;
64875;SDS011;51369;49.862;9.908;2023-07-02T14:25:49;21.30;;;13.95;;
64875;SDS011;51369;49.862;9.908;2023-07-02T14:28:14;21.17;;;13.40;;
64875;SDS011;51369;49.862;9.908;2023-07-02T14:30:39;21.00;;;13.27;;
64875;SDS011;51369;49.862;9.908;2023-07-02T14:33:07;24.00;;;13.85;;
64875;SDS011;51369;49.862;9.908;2023-07-02T14:35:33;21.73;;;13.90;;
64875;SDS011;51369;49.862;9.908;2023-07-02T14:38:00;23.25;;;14.55;;
64875;SDS011;51369;49.862;9.908;2023-07-02T14:40:25;25.92;;;15.07;;